Time;durP1;ratioP1;P1;durP2;ratioP2;P2;SDS_P1;SDS_P2;PMS_P1;PMS_P2;Temp;Humidity;BMP_temperature;BMP_pressure;BME280_temperature;BME280_humidity;BME280_pressure;Samples;Min_cycle;Max_cycle;Signal;HPM_P1;HPM_P2
2021/07/29 00:00:36;;;;;;;9.98;3.50;;;16.50;90.80;;;;;;5014424;28;20104;-91
2021/07/29 00:03:02;;;;;;;6.68;2.85;;;16.40;90.70;;;;;;5014206;28;20046;-88
2021/07/29 00:05:29;;;;;;;7.32;2.85;;;16.40;90.80;;;;;;5014507;28;20065;-89
2021/07/29 00:07:55;;;;;;;6.80;3.10;;;16.40;90.80;;;;;;5014190;28;20046;-90
2021/07/29 00:10:21;;;;;;;6.28;3.00;;;16.40;90.90;;;;;;5014542;28;20053;-89
2021/07/29 00:12:47;;;;;;;8.50;3.08;;;16.30;91.10;;;;;;5012781;28;20387;-89
2021/07/29 00:15:15;;;;;;;6.93;3.05;;;16.30;91.00;;;;;;5013678;28;20049;-89
2021/07/29 00:20:16;;;;;;;8.52;2.83;;;16.30;91.00;;;;;;5013917;28;20128;-89
2021/07/29 00:22:42;;;;;;;6.65;2.80;;;16.30;91.00;;;;;;5012624;28;20077;-89
2021/07/29 00:25:13;;;;;;;9.35;3.33;;;16.20;90.90;;;;;;5014174;28;20046;-91
2021/07/29 00:27:45;;;;;;;8.18;3.00;;;16.20;91.00;;;;;;5014581;28;20054;-89
2021/07/29 00:30:12;;;;;;;8.48;2.60;;;16.20;91.10;;;;;;5013845;28;20093;-88
2021/07/29 00:32:39;;;;;;;10.10;2.75;;;16.10;91.10;;;;;;5012344;28;20048;-90
2021/07/29 00:35:07;;;;;;;5.95;3.00;;;16.20;91.10;;;;;;5014113;28;20069;-89
2021/07/29 00:37:34;;;;;;;7.82;3.30;;;16.20;91.10;;;;;;5012609;28;20046;-89
2021/07/29 00:39:59;;;;;;;7.47;3.28;;;16.20;91.10;;;;;;5012948;28;20054;-89
2021/07/29 00:42:25;;;;;;;9.07;2.80;;;16.10;91.00;;;;;;5013837;28;20548;-88
2021/07/29 00:44:51;;;;;;;5.25;2.50;;;16.10;91.10;;;;;;5014402;28;20053;-90
2021/07/29 00:47:18;;;;;;;5.80;2.60;;;16.10;91.10;;;;;;5013498;28;20536;-89
2021/07/29 00:49:47;;;;;;;6.13;2.70;;;16.10;91.20;;;;;;5013932;28;20050;-90
2021/07/29 00:52:17;;;;;;;6.82;2.80;;;16.00;91.20;;;;;;5013113;28;20054;-90
2021/07/29 00:54:44;;;;;;;9.45;3.17;;;16.00;91.20;;;;;;5014100;28;20050;-88
2021/07/29 00:57:10;;;;;;;9.32;2.78;;;16.00;91.40;;;;;;5013141;28;20057;-88
2021/07/29 00:59:36;;;;;;;8.30;2.85;;;16.00;91.40;;;;;;5013977;28;20121;-87
2021/07/29 01:02:03;;;;;;;8.50;2.65;;;16.00;91.30;;;;;;5013823;28;20050;-89
2021/07/29 01:04:29;;;;;;;7.03;2.90;;;16.00;91.20;;;;;;5013412;28;20402;-89
2021/07/29 01:06:55;;;;;;;5.95;2.75;;;16.00;91.30;;;;;;5012988;28;20050;-88
2021/07/29 01:09:21;;;;;;;6.85;3.03;;;16.00;91.50;;;;;;5013307;28;20570;-87
2021/07/29 01:11:47;;;;;;;8.07;2.97;;;16.00;91.40;;;;;;5013613;28;20081;-89
2021/07/29 01:14:13;;;;;;;5.93;2.83;;;16.00;91.50;;;;;;5013793;28;20136;-91
2021/07/29 01:16:39;;;;;;;8.30;2.72;;;16.00;91.40;;;;;;5013698;28;20046;-90
2021/07/29 01:19:06;;;;;;;7.88;2.95;;;16.00;91.40;;;;;;5012992;28;20057;-90
2021/07/29 01:21:33;;;;;;;7.53;2.92;;;16.00;91.40;;;;;;5013425;28;20053;-87
2021/07/29 01:23:59;;;;;;;6.80;2.90;;;16.00;91.30;;;;;;5002386;28;20046;-90
2021/07/29 01:26:28;;;;;;;7.82;2.95;;;16.00;91.30;;;;;;5000197;28;20513;-90
2021/07/29 01:28:54;;;;;;;6.95;2.92;;;16.00;91.20;;;;;;4993396;28;20082;-89
2021/07/29 01:31:20;;;;;;;8.88;2.75;;;16.00;91.30;;;;;;4994004;28;20129;-89
2021/07/29 01:33:46;;;;;;;8.52;2.80;;;16.00;91.30;;;;;;4993515;28;20077;-89
2021/07/29 01:36:12;;;;;;;8.00;3.10;;;16.00;91.40;;;;;;5000243;28;20052;-87
2021/07/29 01:38:37;;;;;;;9.35;3.47;;;16.10;91.40;;;;;;5013452;28;20060;-88
2021/07/29 01:41:03;;;;;;;6.65;2.58;;;16.10;91.30;;;;;;5013338;28;20057;-89
2021/07/29 01:43:30;;;;;;;7.53;3.03;;;16.10;91.30;;;;;;5013347;28;20092;-86
2021/07/29 01:45:57;;;;;;;8.48;2.55;;;16.10;91.40;;;;;;5013263;28;20057;-90
2021/07/29 01:48:23;;;;;;;7.35;2.53;;;16.00;91.20;;;;;;5013802;28;20078;-90
2021/07/29 01:50:49;;;;;;;7.50;2.75;;;16.00;91.20;;;;;;4996567;28;20080;-89
2021/07/29 01:53:15;;;;;;;8.15;2.83;;;16.00;91.10;;;;;;4993229;28;20108;-90
2021/07/29 01:55:42;;;;;;;8.32;3.00;;;16.00;91.10;;;;;;4994054;28;20053;-90
2021/07/29 01:58:09;;;;;;;7.25;2.53;;;16.00;91.10;;;;;;4993448;28;20561;-88
2021/07/29 02:00:35;;;;;;;5.30;2.50;;;16.00;91.10;;;;;;4993518;28;20058;-89
2021/07/29 02:03:02;;;;;;;6.80;2.72;;;16.00;91.20;;;;;;4993489;28;20456;-89
2021/07/29 02:05:29;;;;;;;9.73;2.67;;;16.00;91.20;;;;;;4994989;28;20050;-91
2021/07/29 02:07:55;;;;;;;6.30;2.55;;;16.00;91.20;;;;;;5012496;28;20136;-88
2021/07/29 02:10:21;;;;;;;9.35;2.60;;;16.00;91.20;;;;;;5013003;28;20490;-91
2021/07/29 02:12:47;;;;;;;11.32;3.55;;;16.00;91.20;;;;;;5013137;28;20050;-85
2021/07/29 02:15:13;;;;;;;7.65;2.50;;;16.00;91.40;;;;;;5012161;28;20525;-86
2021/07/29 02:17:38;;;;;;;7.75;1.75;;;15.90;91.50;;;;;;5012656;28;20061;-88
2021/07/29 02:20:05;;;;;;;6.30;2.30;;;15.90;91.20;;;;;;5012588;28;20050;-88
2021/07/29 02:22:31;;;;;;;4.28;1.40;;;15.80;91.20;;;;;;5012526;28;20057;-88
2021/07/29 02:24:57;;;;;;;5.55;1.65;;;15.80;91.00;;;;;;5012517;28;20092;-89
2021/07/29 02:27:24;;;;;;;3.53;0.90;;;15.70;91.00;;;;;;5012517;28;20423;-88
2021/07/29 02:29:53;;;;;;;3.78;1.25;;;15.70;90.90;;;;;;5012522;28;20076;-88
2021/07/29 02:32:20;;;;;;;4.22;1.48;;;15.60;90.90;;;;;;5011991;28;20054;-88
2021/07/29 02:34:46;;;;;;;5.25;1.13;;;15.50;91.10;;;;;;5012759;28;20057;-87
2021/07/29 02:37:12;;;;;;;3.38;0.88;;;15.50;91.00;;;;;;5014276;28;20653;-85
2021/07/29 02:39:40;;;;;;;2.88;1.23;;;15.50;90.80;;;;;;5015596;28;20049;-86
2021/07/29 02:42:07;;;;;;;4.18;1.30;;;15.40;91.00;;;;;;5014924;28;20058;-86
2021/07/29 02:44:32;;;;;;;3.15;1.23;;;15.30;91.40;;;;;;5015723;28;20053;-85
2021/07/29 02:46:58;;;;;;;3.22;1.15;;;15.30;91.60;;;;;;5015407;28;20060;-86
2021/07/29 02:49:24;;;;;;;2.40;1.00;;;15.30;91.40;;;;;;5004087;28;20056;-85
2021/07/29 02:51:51;;;;;;;4.03;1.20;;;15.20;91.30;;;;;;4996022;28;20058;-86
2021/07/29 02:54:17;;;;;;;3.92;1.20;;;15.20;91.70;;;;;;4996112;28;20053;-87
2021/07/29 02:56:42;;;;;;;3.33;1.30;;;15.20;91.80;;;;;;4995937;28;20054;-88
2021/07/29 02:59:08;;;;;;;2.05;0.60;;;15.20;92.00;;;;;;4996274;28;20162;-89
2021/07/29 03:01:33;;;;;;;3.30;1.10;;;15.20;91.70;;;;;;4996194;28;20076;-88
2021/07/29 03:03:59;;;;;;;3.25;1.00;;;15.10;91.60;;;;;;4995755;28;20046;-89
2021/07/29 03:06:25;;;;;;;3.00;0.93;;;15.20;91.90;;;;;;4995778;28;20054;-88
2021/07/29 03:08:50;;;;;;;2.30;0.63;;;15.20;91.90;;;;;;4996218;28;20179;-87
2021/07/29 03:11:16;;;;;;;3.60;1.00;;;15.10;91.50;;;;;;4995653;28;20053;-90
2021/07/29 03:13:46;;;;;;;1.98;0.73;;;15.10;91.60;;;;;;4996105;28;20054;-89
2021/07/29 03:16:11;;;;;;;4.97;0.82;;;15.10;91.80;;;;;;4995337;28;20050;-88
2021/07/29 03:18:37;;;;;;;1.98;0.70;;;15.10;92.00;;;;;;4995443;28;20493;-89
2021/07/29 03:21:08;;;;;;;3.13;0.90;;;15.10;91.80;;;;;;4995741;28;20046;-89
2021/07/29 03:23:37;;;;;;;3.10;1.08;;;15.10;92.00;;;;;;4996008;28;20050;-90
2021/07/29 03:26:04;;;;;;;3.38;0.57;;;15.10;92.10;;;;;;4995438;28;20049;-87
2021/07/29 03:28:30;;;;;;;2.60;0.60;;;15.10;91.80;;;;;;4995529;28;20046;-90
2021/07/29 03:30:55;;;;;;;2.40;0.75;;;15.10;91.50;;;;;;5011265;28;20454;-88
2021/07/29 03:33:22;;;;;;;1.38;0.60;;;15.10;91.70;;;;;;5014763;28;20124;-89
2021/07/29 03:35:48;;;;;;;3.10;0.70;;;15.10;91.70;;;;;;5009575;28;20085;-89
2021/07/29 03:38:14;;;;;;;3.08;0.90;;;15.10;91.60;;;;;;4995035;28;20046;-88
2021/07/29 03:40:41;;;;;;;3.35;0.70;;;15.10;91.80;;;;;;4995858;28;20081;-89
2021/07/29 03:43:07;;;;;;;2.22;0.60;;;15.10;91.70;;;;;;4995421;28;20057;-89
2021/07/29 03:45:38;;;;;;;2.38;0.60;;;15.10;91.40;;;;;;4995085;28;20054;-89
2021/07/29 03:48:04;;;;;;;2.28;0.60;;;15.00;91.60;;;;;;4994183;28;20112;-89
2021/07/29 03:50:30;;;;;;;5.68;0.98;;;15.00;91.80;;;;;;4995632;28;20054;-91
2021/07/29 03:52:57;;;;;;;1.58;0.60;;;14.90;91.70;;;;;;4994610;28;20062;-87
2021/07/29 03:55:23;;;;;;;1.27;0.68;;;14.90;91.70;;;;;;4995115;28;20137;-89
2021/07/29 03:57:48;;;;;;;2.35;0.80;;;14.90;91.90;;;;;;4995401;28;20137;-88
2021/07/29 04:00:15;;;;;;;5.10;0.93;;;14.90;91.90;;;;;;4994647;28;20050;-90
2021/07/29 04:02:41;;;;;;;8.48;1.17;;;14.90;92.10;;;;;;4995147;28;20519;-87
2021/07/29 04:05:08;;;;;;;2.35;0.80;;;14.80;92.00;;;;;;4994739;28;20392;-90
2021/07/29 04:07:35;;;;;;;3.80;0.90;;;14.90;92.00;;;;;;4994609;28;20548;-89
2021/07/29 04:10:01;;;;;;;5.75;1.20;;;14.90;92.10;;;;;;4994610;28;20047;-90
2021/07/29 04:12:28;;;;;;;4.47;1.10;;;14.80;91.90;;;;;;4994888;28;20054;-88
2021/07/29 04:14:54;;;;;;;5.68;1.33;;;14.80;91.90;;;;;;4994653;28;20458;-89
2021/07/29 04:17:20;;;;;;;6.20;1.30;;;14.80;91.90;;;;;;4994581;28;20050;-88
2021/07/29 04:19:46;;;;;;;4.72;1.13;;;14.70;91.90;;;;;;4995197;28;20050;-91
2021/07/29 04:22:12;;;;;;;6.68;1.30;;;14.70;92.00;;;;;;4994240;28;20185;-90
2021/07/29 04:24:38;;;;;;;3.90;1.02;;;14.70;92.10;;;;;;4994738;28;20089;-91
2021/07/29 04:27:10;;;;;;;3.63;1.00;;;14.70;92.00;;;;;;4994375;28;20137;-88
2021/07/29 04:29:45;;;;;;;5.57;1.50;;;14.70;92.20;;;;;;5002721;28;20046;-88
2021/07/29 04:32:11;;;;;;;4.18;1.23;;;14.60;92.20;;;;;;5013906;28;20538;-88
2021/07/29 04:34:38;;;;;;;4.70;1.10;;;14.60;92.60;;;;;;5014055;28;20053;-89
2021/07/29 04:37:04;;;;;;;4.53;1.23;;;14.60;92.50;;;;;;5014169;28;20049;-90
2021/07/29 04:39:41;;;;;;;;;;;14.60;92.50;;;;;;5014912;28;20050;-88
2021/07/29 04:42:07;;;;;;;8.68;1.60;;;14.60;92.10;;;;;;5013791;28;19968;-89
2021/07/29 04:44:32;;;;;;;7.80;1.77;;;14.60;92.60;;;;;;5014000;28;20054;-91
2021/07/29 04:47:01;;;;;;;6.78;1.58;;;14.60;92.60;;;;;;5013772;28;20101;-90
2021/07/29 04:49:27;;;;;;;7.53;1.67;;;14.60;92.60;;;;;;5003356;28;20050;-89
2021/07/29 04:51:53;;;;;;;5.35;1.38;;;14.60;92.60;;;;;;4994489;28;20138;-89
2021/07/29 04:54:19;;;;;;;4.80;1.40;;;14.70;92.60;;;;;;4994560;28;20042;-91
2021/07/29 04:56:45;;;;;;;8.82;1.80;;;14.70;92.50;;;;;;4994105;28;20117;-91
2021/07/29 04:59:10;;;;;;;9.43;1.95;;;14.70;92.50;;;;;;4993559;28;20049;-89
2021/07/29 05:01:37;;;;;;;7.55;1.60;;;14.70;92.60;;;;;;5008162;28;20046;-89
2021/07/29 05:04:03;;;;;;;7.25;1.73;;;14.70;92.70;;;;;;5012545;28;20136;-90
2021/07/29 05:06:34;;;;;;;7.55;1.92;;;14.70;92.60;;;;;;5013080;28;20053;-90
2021/07/29 05:09:00;;;;;;;6.75;1.75;;;14.70;92.70;;;;;;5013341;28;20472;-94
2021/07/29 05:11:31;;;;;;;6.45;1.50;;;14.70;92.70;;;;;;5010939;28;20379;-90
2021/07/29 05:13:57;;;;;;;7.10;1.67;;;14.70;92.80;;;;;;5014313;28;20057;-91
2021/07/29 05:16:25;;;;;;;6.22;1.65;;;14.70;92.80;;;;;;5014851;28;20046;-91
2021/07/29 05:18:50;;;;;;;9.43;1.85;;;14.70;92.90;;;;;;5013971;28;20084;-90
2021/07/29 05:21:16;;;;;;;11.02;2.38;;;14.70;92.90;;;;;;5013790;28;20478;-90
2021/07/29 05:23:42;;;;;;;7.57;2.08;;;14.80;93.00;;;;;;5013613;28;20073;-89
2021/07/29 05:26:15;;;;;;;8.13;2.17;;;14.80;92.90;;;;;;5014012;28;20073;-94
2021/07/29 05:28:40;;;;;;;11.93;2.38;;;14.80;93.00;;;;;;5011970;28;20049;-90
2021/07/29 05:31:10;;;;;;;9.18;1.92;;;14.80;93.10;;;;;;4994029;28;20065;-95
2021/07/29 05:33:36;;;;;;;10.40;2.30;;;14.80;93.10;;;;;;4993422;28;20109;-92
2021/07/29 05:36:02;;;;;;;11.27;2.22;;;14.80;93.20;;;;;;4994748;28;20149;-91
2021/07/29 05:38:28;;;;;;;11.25;2.42;;;14.80;93.20;;;;;;4994938;28;20066;-91
2021/07/29 05:40:58;;;;;;;8.68;2.60;;;14.80;93.20;;;;;;4995043;28;20046;-95
2021/07/29 05:43:25;;;;;;;11.30;1.90;;;14.80;93.20;;;;;;4995049;28;20078;-92
2021/07/29 05:45:51;;;;;;;9.00;2.25;;;14.80;93.20;;;;;;4995123;28;20483;-94
2021/07/29 05:48:17;;;;;;;7.43;2.10;;;14.90;93.20;;;;;;4995373;28;20060;-92
2021/07/29 05:50:42;;;;;;;9.20;2.28;;;14.90;93.20;;;;;;4996464;28;20140;-93
2021/07/29 05:53:08;;;;;;;8.70;1.90;;;15.00;93.10;;;;;;4995624;28;20490;-92
2021/07/29 05:55:34;;;;;;;8.13;2.00;;;15.00;93.10;;;;;;4995142;28;20050;-93
2021/07/29 05:58:00;;;;;;;8.00;2.05;;;15.00;93.00;;;;;;4995111;28;20054;-92
2021/07/29 06:00:27;;;;;;;11.73;2.20;;;15.10;93.10;;;;;;5010729;28;20129;-93
2021/07/29 06:02:53;;;;;;;6.10;1.90;;;15.10;93.00;;;;;;5016955;28;20482;-94
2021/07/29 06:05:19;;;;;;;10.73;2.30;;;15.10;93.00;;;;;;5015554;28;20100;-91
2021/07/29 06:07:46;;;;;;;6.60;1.80;;;15.10;93.00;;;;;;5015067;28;20054;-93
2021/07/29 06:10:11;;;;;;;8.07;1.98;;;15.20;93.00;;;;;;5013404;28;20080;-94
2021/07/29 06:12:37;;;;;;;10.80;1.80;;;15.20;92.90;;;;;;5018972;28;20054;-93
2021/07/29 06:15:05;;;;;;;9.10;1.98;;;15.30;92.90;;;;;;5019419;28;20066;-92
2021/07/29 06:17:33;;;;;;;10.15;1.95;;;15.30;92.80;;;;;;5019546;28;20393;-93
2021/07/29 06:20:05;;;;;;;11.43;2.20;;;15.30;92.80;;;;;;5020203;28;20058;-95
2021/07/29 06:22:31;;;;;;;7.75;1.95;;;15.40;92.80;;;;;;5020170;28;20128;-91
2021/07/29 06:25:05;;;;;;;8.32;2.10;;;15.40;92.80;;;;;;5019844;28;20479;-96
2021/07/29 06:27:31;;;;;;;8.38;2.20;;;15.50;92.80;;;;;;5019904;28;20050;-93
2021/07/29 06:29:57;;;;;;;9.73;1.88;;;15.50;92.80;;;;;;5000621;28;20109;-93
2021/07/29 06:32:22;;;;;;;9.90;2.10;;;15.60;92.60;;;;;;4999893;28;20114;-95
2021/07/29 06:34:48;;;;;;;9.05;2.03;;;15.70;92.50;;;;;;4999013;28;20042;-93
2021/07/29 06:37:14;;;;;;;8.27;1.98;;;15.80;92.40;;;;;;4998878;28;20046;-94
2021/07/29 06:39:40;;;;;;;8.52;2.22;;;15.80;92.40;;;;;;4999031;28;20050;-93
2021/07/29 06:42:06;;;;;;;11.38;1.98;;;15.90;92.40;;;;;;5000127;28;20050;-94
2021/07/29 06:44:32;;;;;;;9.80;2.40;;;16.00;92.30;;;;;;5008277;28;20078;-92
2021/07/29 06:46:57;;;;;;;10.15;2.20;;;16.00;92.30;;;;;;5020397;28;20052;-93
2021/07/29 06:49:31;;;;;;;8.88;2.28;;;16.10;92.30;;;;;;5020956;28;20042;-95
2021/07/29 06:51:57;;;;;;;12.02;2.30;;;16.20;92.10;;;;;;5019703;28;20046;-93
2021/07/29 06:54:22;;;;;;;11.05;2.40;;;16.30;92.20;;;;;;5019485;28;20058;-94
2021/07/29 06:56:49;;;;;;;9.20;2.10;;;16.40;91.90;;;;;;5018412;28;20045;-92
2021/07/29 06:59:14;;;;;;;11.13;2.42;;;16.40;92.20;;;;;;5008733;28;20085;-94
2021/07/29 07:01:40;;;;;;;11.13;2.35;;;16.50;91.90;;;;;;5016947;28;20505;-95
2021/07/29 07:04:06;;;;;;;9.77;2.10;;;16.50;91.90;;;;;;5019494;28;20058;-92
2021/07/29 07:06:33;;;;;;;13.05;2.47;;;16.60;91.90;;;;;;5015440;28;20128;-92
2021/07/29 07:08:59;;;;;;;10.70;2.47;;;16.70;91.80;;;;;;5003252;28;20072;-93
2021/07/29 07:11:25;;;;;;;11.55;2.38;;;16.70;91.70;;;;;;5001449;28;20046;-93
2021/07/29 07:13:50;;;;;;;9.77;2.25;;;16.80;91.60;;;;;;4998177;28;20089;-92
2021/07/29 07:16:16;;;;;;;8.27;2.10;;;16.90;91.60;;;;;;4997636;28;20070;-91
2021/07/29 07:18:42;;;;;;;10.45;2.15;;;16.90;91.90;;;;;;5001100;28;20065;-92
2021/07/29 07:21:09;;;;;;;12.82;2.83;;;17.00;91.40;;;;;;5020551;28;20053;-94
2021/07/29 07:23:38;;;;;;;13.32;2.63;;;17.10;91.30;;;;;;5017749;28;20076;-93
2021/07/29 07:26:04;;;;;;;12.07;2.40;;;17.20;91.20;;;;;;5018046;28;20054;-95
2021/07/29 07:28:30;;;;;;;12.63;2.42;;;17.20;91.00;;;;;;5018779;28;20054;-96
2021/07/29 07:30:56;;;;;;;12.32;2.40;;;17.20;91.00;;;;;;5017635;28;20057;-95
2021/07/29 07:33:22;;;;;;;12.30;2.50;;;17.30;90.90;;;;;;5017504;28;20046;-93
2021/07/29 07:35:49;;;;;;;15.27;2.65;;;17.20;90.90;;;;;;5017284;28;20094;-93
2021/07/29 07:38:15;;;;;;;12.90;2.53;;;17.20;90.90;;;;;;5015595;28;20053;-94
2021/07/29 07:40:41;;;;;;;10.07;2.20;;;17.20;90.80;;;;;;5017588;28;20153;-95
2021/07/29 07:43:08;;;;;;;9.32;2.15;;;17.20;90.80;;;;;;5017935;28;20045;-94
2021/07/29 07:45:35;;;;;;;13.63;2.33;;;17.20;90.80;;;;;;5018720;28;20410;-93
2021/07/29 07:48:01;;;;;;;10.20;2.20;;;17.20;90.70;;;;;;5018076;28;20050;-95
2021/07/29 07:50:27;;;;;;;9.82;1.92;;;17.20;90.50;;;;;;5018252;28;20046;-95
2021/07/29 07:52:52;;;;;;;10.68;2.25;;;17.10;90.40;;;;;;5019831;28;20149;-95
2021/07/29 07:55:18;;;;;;;13.50;2.15;;;17.20;90.40;;;;;;5017703;28;20484;-94
2021/07/29 07:57:45;;;;;;;8.35;1.80;;;17.10;90.20;;;;;;5017305;28;20061;-94
2021/07/29 08:00:14;;;;;;;8.43;2.00;;;17.20;90.00;;;;;;5019883;28;20108;-95
2021/07/29 08:02:40;;;;;;;8.02;1.88;;;17.20;90.00;;;;;;5011188;28;20049;-95
2021/07/29 08:05:06;;;;;;;10.75;1.73;;;17.20;89.70;;;;;;5023273;28;20359;-96
2021/07/29 08:07:31;;;;;;;10.77;2.10;;;17.30;89.50;;;;;;5019898;28;20057;-96
2021/07/29 08:09:57;;;;;;;9.35;2.20;;;17.40;89.60;;;;;;5019416;28;20046;-94
2021/07/29 08:12:23;;;;;;;8.70;2.13;;;17.50;89.70;;;;;;5015597;28;20434;-95
2021/07/29 08:14:48;;;;;;;12.02;2.30;;;17.60;89.70;;;;;;5019728;28;20046;-94
2021/07/29 08:17:14;;;;;;;11.05;2.50;;;17.70;90.10;;;;;;5020093;28;20161;-94
2021/07/29 08:19:39;;;;;;;10.20;2.35;;;17.70;89.10;;;;;;5018635;28;20088;-94
2021/07/29 08:22:05;;;;;;;6.38;1.55;;;17.80;88.20;;;;;;5020440;28;20512;-94
2021/07/29 08:24:33;;;;;;;11.82;2.30;;;17.90;87.80;;;;;;5019785;28;20049;-95
2021/07/29 08:27:00;;;;;;;7.03;1.88;;;17.90;88.20;;;;;;5016795;28;20049;-94
2021/07/29 08:29:26;;;;;;;8.25;2.05;;;18.00;87.80;;;;;;5018155;28;20049;-93
2021/07/29 08:31:52;;;;;;;11.63;2.10;;;18.10;87.10;;;;;;5020658;28;20072;-94
2021/07/29 08:34:17;;;;;;;10.65;2.00;;;18.10;86.10;;;;;;5015566;28;20129;-93
2021/07/29 08:36:43;;;;;;;8.30;2.00;;;18.20;85.40;;;;;;5017706;28;20042;-94
2021/07/29 08:39:08;;;;;;;10.15;2.22;;;18.30;85.80;;;;;;5018368;28;20057;-91
2021/07/29 08:41:35;;;;;;;13.07;2.08;;;18.30;85.90;;;;;;5017708;28;20046;-93
2021/07/29 08:44:00;;;;;;;7.95;2.15;;;18.40;85.10;;;;;;5020468;28;20054;-93
2021/07/29 08:46:35;;;;;;;12.48;2.30;;;18.50;84.20;;;;;;5021072;28;20052;-96
2021/07/29 08:49:02;;;;;;;11.20;2.22;;;18.60;84.60;;;;;;5020934;28;20049;-94
2021/07/29 08:51:28;;;;;;;8.73;2.20;;;18.70;84.00;;;;;;5020377;28;20089;-94
2021/07/29 08:53:56;;;;;;;10.23;2.03;;;18.70;83.30;;;;;;5020907;28;20054;-95
2021/07/29 08:56:24;;;;;;;11.43;2.15;;;18.80;82.70;;;;;;5020753;28;20474;-90
2021/07/29 08:58:52;;;;;;;8.93;1.77;;;18.80;81.90;;;;;;5017811;28;20457;-94
2021/07/29 09:01:17;;;;;;;8.45;1.92;;;18.90;82.10;;;;;;5011350;28;20073;-92
2021/07/29 09:03:44;;;;;;;5.72;1.90;;;18.90;81.70;;;;;;5019489;28;20402;-95
2021/07/29 09:06:14;;;;;;;13.02;2.58;;;18.90;81.10;;;;;;5013672;28;20115;-94
2021/07/29 09:08:52;;;;;;;11.60;2.17;;;18.90;80.50;;;;;;5015271;28;20054;-93
2021/07/29 09:11:28;;;;;;;7.93;1.80;;;18.90;81.60;;;;;;5018743;28;20061;-95
2021/07/29 09:14:09;;;;;;;10.88;2.40;;;18.90;80.40;;;;;;5020484;28;20056;-95
2021/07/29 09:16:51;;;;;;;6.95;1.85;;;18.90;79.70;;;;;;5017800;28;20054;-95
2021/07/29 09:19:30;;;;;;;12.98;2.13;;;18.90;80.30;;;;;;5018614;28;20054;-95
2021/07/29 09:22:06;;;;;;;9.05;2.08;;;19.00;79.60;;;;;;5017644;28;20054;-92
2021/07/29 09:24:32;;;;;;;12.48;1.85;;;19.00;80.60;;;;;;5017442;28;20060;-96
2021/07/29 09:26:59;;;;;;;8.63;2.20;;;19.00;80.80;;;;;;5013852;28;20050;-95
2021/07/29 09:29:26;;;;;;;11.73;2.05;;;19.00;81.00;;;;;;5019338;28;20132;-93
2021/07/29 09:32:05;;;;;;;10.07;2.15;;;19.00;80.50;;;;;;5009258;28;20058;-96
2021/07/29 09:34:44;;;;;;;7.53;1.63;;;19.10;80.20;;;;;;5004381;28;20046;-96
2021/07/29 09:37:11;;;;;;;12.40;2.40;;;19.00;80.00;;;;;;5006056;28;20513;-95
2021/07/29 09:39:37;;;;;;;9.05;2.10;;;19.10;79.70;;;;;;5023392;28;20069;-93
2021/07/29 09:42:22;;;;;;;9.07;2.00;;;19.00;78.90;;;;;;5006695;28;20517;-93
2021/07/29 09:44:53;;;;;;;10.05;1.90;;;18.90;77.60;;;;;;5010740;28;20070;-94
2021/07/29 09:47:22;;;;;;;8.38;2.25;;;18.90;78.30;;;;;;5020459;28;20093;-96
2021/07/29 09:49:50;;;;;;;9.40;1.98;;;18.90;77.70;;;;;;5021751;28;20058;-96
2021/07/29 09:52:17;;;;;;;10.23;2.10;;;18.90;77.50;;;;;;5021290;28;20042;-93
2021/07/29 09:54:45;;;;;;;7.95;1.92;;;18.90;77.40;;;;;;5021246;28;20076;-95
2021/07/29 09:57:11;;;;;;;7.90;1.95;;;18.90;77.00;;;;;;5020324;28;20045;-90
2021/07/29 09:59:38;;;;;;;7.07;1.80;;;18.90;76.30;;;;;;5011518;28;20088;-92
2021/07/29 10:02:05;;;;;;;9.50;1.73;;;18.90;76.00;;;;;;5022135;28;20552;-94
2021/07/29 10:04:52;;;;;;;10.02;1.83;;;18.90;76.50;;;;;;5022589;28;20447;-95
2021/07/29 10:07:34;;;;;;;10.32;2.13;;;18.90;77.60;;;;;;5009848;28;20089;-95
2021/07/29 10:10:02;;;;;;;7.55;1.83;;;19.00;75.40;;;;;;5018505;28;20546;-93
2021/07/29 10:12:32;;;;;;;12.82;2.03;;;19.00;75.30;;;;;;5022589;28;20598;-92
2021/07/29 10:15:00;;;;;;;9.82;1.90;;;19.10;75.60;;;;;;5012057;28;20050;-95
2021/07/29 10:17:34;;;;;;;7.30;1.70;;;19.10;75.10;;;;;;5023862;28;20050;-90
2021/07/29 10:20:13;;;;;;;7.63;1.75;;;19.10;74.00;;;;;;5021566;28;20058;-95
2021/07/29 10:22:39;;;;;;;11.25;1.95;;;19.00;74.50;;;;;;5022618;28;20060;-89
2021/07/29 10:25:05;;;;;;;11.93;2.35;;;19.00;75.70;;;;;;5024292;28;20046;-95
2021/07/29 10:27:32;;;;;;;9.10;2.08;;;18.90;76.10;;;;;;5022340;28;20049;-96
2021/07/29 10:30:19;;;;;;;6.13;1.63;;;18.90;76.00;;;;;;5023609;28;20046;-96
2021/07/29 10:32:47;;;;;;;8.95;1.77;;;19.00;75.70;;;;;;5020511;28;20054;-94
2021/07/29 10:35:31;;;;;;;7.22;1.83;;;19.10;76.80;;;;;;5022714;28;20092;-93
2021/07/29 10:38:00;;;;;;;8.55;2.10;;;19.20;74.90;;;;;;5022329;28;20056;-92
2021/07/29 10:40:36;;;;;;;9.32;1.73;;;19.30;73.80;;;;;;5021459;28;20050;-94
2021/07/29 10:43:23;;;;;;;8.50;1.73;;;19.30;73.70;;;;;;5020355;28;20053;-93
2021/07/29 10:45:51;;;;;;;7.55;1.63;;;19.30;72.70;;;;;;5034278;28;20132;-93
2021/07/29 10:48:42;;;;;;;12.05;2.00;;;19.30;72.90;;;;;;5025008;28;20053;-95
2021/07/29 10:51:14;;;;;;;11.80;2.00;;;19.30;72.40;;;;;;5020839;28;20078;-93
2021/07/29 10:53:44;;;;;;;6.43;1.73;;;19.30;73.00;;;;;;5018347;28;20057;-93
2021/07/29 10:56:12;;;;;;;7.13;1.92;;;19.30;73.70;;;;;;5000024;28;20073;-89
2021/07/29 10:58:39;;;;;;;6.53;1.48;;;19.30;74.20;;;;;;5016682;28;20041;-93
2021/07/29 11:01:05;;;;;;;7.75;1.85;;;19.20;73.50;;;;;;5015910;28;20042;-91
2021/07/29 11:03:31;;;;;;;9.95;2.10;;;19.20;74.50;;;;;;5013858;28;20041;-92
2021/07/29 11:06:05;;;;;;;7.95;1.90;;;19.10;74.20;;;;;;5015294;28;20053;-93
2021/07/29 11:08:32;;;;;;;9.43;1.88;;;19.10;73.80;;;;;;4997581;28;20057;-92
2021/07/29 11:11:00;;;;;;;6.35;1.77;;;19.10;74.50;;;;;;5011271;28;20089;-81
2021/07/29 11:13:28;;;;;;;7.03;1.83;;;19.20;74.70;;;;;;5013863;28;20142;-82
2021/07/29 11:15:54;;;;;;;9.07;1.98;;;19.30;75.20;;;;;;5014367;28;20507;-82
2021/07/29 11:18:21;;;;;;;9.02;1.88;;;19.30;74.00;;;;;;5014517;28;20056;-82
2021/07/29 11:20:47;;;;;;;6.75;1.73;;;19.40;73.50;;;;;;5007669;28;20106;-83
2021/07/29 11:23:16;;;;;;;8.43;2.05;;;19.30;73.30;;;;;;4994095;28;20061;-81
2021/07/29 11:25:58;;;;;;;9.13;1.98;;;19.40;73.60;;;;;;5009202;28;20050;-82
2021/07/29 11:28:24;;;;;;;10.45;2.00;;;19.50;72.80;;;;;;5014396;28;20512;-82
2021/07/29 11:30:51;;;;;;;8.63;2.30;;;19.60;73.50;;;;;;5003196;28;20049;-82
2021/07/29 11:33:25;;;;;;;10.07;1.88;;;19.70;73.20;;;;;;5014289;28;20140;-82
2021/07/29 11:35:52;;;;;;;8.18;2.30;;;19.80;74.00;;;;;;4999366;28;20051;-87
2021/07/29 11:38:22;;;;;;;10.85;2.10;;;19.80;73.70;;;;;;4994095;28;20569;-80
2021/07/29 11:40:57;;;;;;;7.35;1.90;;;19.90;72.60;;;;;;4997390;28;20094;-91
2021/07/29 11:43:27;;;;;;;7.70;1.90;;;20.00;72.80;;;;;;5014497;28;20050;-93
2021/07/29 11:46:03;;;;;;;10.02;2.22;;;20.10;72.60;;;;;;5012207;28;20072;-87
2021/07/29 11:48:29;;;;;;;9.30;2.08;;;20.20;71.80;;;;;;5013904;28;20137;-89
2021/07/29 11:50:55;;;;;;;9.95;2.20;;;20.20;72.20;;;;;;5014510;28;20089;-92
2021/07/29 11:53:35;;;;;;;8.10;1.98;;;20.30;71.90;;;;;;5013598;28;20498;-92
2021/07/29 11:56:01;;;;;;;9.60;2.10;;;20.30;72.30;;;;;;5015004;28;20042;-89
2021/07/29 11:58:26;;;;;;;13.45;2.33;;;20.30;72.20;;;;;;5014669;28;20417;-88
2021/07/29 12:00:54;;;;;;;10.20;2.42;;;20.40;72.20;;;;;;5014397;28;20050;-89
2021/07/29 12:03:30;;;;;;;9.13;2.03;;;20.40;71.70;;;;;;5014238;28;20061;-91
2021/07/29 12:05:58;;;;;;;9.32;2.10;;;20.40;71.10;;;;;;5015998;28;20053;-89
2021/07/29 12:08:24;;;;;;;13.32;2.25;;;20.50;71.60;;;;;;5014602;28;20405;-89
2021/07/29 12:10:54;;;;;;;10.23;1.85;;;20.50;71.20;;;;;;5014129;28;20490;-92
2021/07/29 12:13:20;;;;;;;9.05;2.20;;;20.50;69.90;;;;;;5012437;28;20046;-91
2021/07/29 12:15:54;;;;;;;8.65;2.20;;;20.40;69.00;;;;;;5014284;28;20133;-92
2021/07/29 12:18:20;;;;;;;13.10;2.45;;;20.40;68.60;;;;;;5015905;28;20453;-89
2021/07/29 12:20:49;;;;;;;9.02;2.10;;;20.40;69.40;;;;;;4998803;28;20473;-90
2021/07/29 12:23:16;;;;;;;7.10;2.08;;;20.40;68.70;;;;;;5018399;28;20077;-93
2021/07/29 12:25:42;;;;;;;9.27;2.13;;;20.30;69.40;;;;;;5019088;28;20050;-90
2021/07/29 12:28:08;;;;;;;10.98;2.20;;;20.40;70.10;;;;;;5017873;28;20066;-95
2021/07/29 12:30:46;;;;;;;11.20;2.50;;;20.30;71.30;;;;;;5131667;27;20439;-92
2021/07/29 12:33:14;;;;;;;10.55;2.28;;;20.40;71.80;;;;;;5133840;28;20055;-91
2021/07/29 12:35:42;;;;;;;9.45;2.28;;;20.40;71.80;;;;;;5134775;27;20069;-91
2021/07/29 12:38:09;;;;;;;7.95;2.25;;;20.40;72.00;;;;;;5135871;27;20376;-93
2021/07/29 12:40:35;;;;;;;7.50;1.70;;;20.50;71.30;;;;;;5135202;27;20558;-93
2021/07/29 12:43:18;;;;;;;7.10;1.83;;;20.50;69.50;;;;;;5133515;27;20054;-94
2021/07/29 12:45:53;;;;;;;7.75;1.98;;;20.50;67.50;;;;;;5132877;28;20044;-92
2021/07/29 12:48:19;;;;;;;7.38;1.90;;;20.50;69.00;;;;;;5128288;27;20385;-87
2021/07/29 12:50:45;;;;;;;7.47;1.75;;;20.50;69.10;;;;;;5131212;27;20051;-93